Time;durP1;ratioP1;P1;durP2;ratioP2;P2;SDS_P1;SDS_P2;PMS_P1;PMS_P2;Temp;Humidity;BMP_temperature;BMP_pressure;BME280_temperature;BME280_humidity;BME280_pressure;Samples;Min_cycle;Max_cycle;Signal;HPM_P1;HPM_P2
2023/05/16 00:01:22;;;;;;;19.00;9.90;;;11.70;99.90;;;;;;4979293;28;20045;-68
2023/05/16 00:03:47;;;;;;;19.27;9.18;;;11.70;99.90;;;;;;4999569;28;20042;-69
2023/05/16 00:06:14;;;;;;;19.52;10.18;;;11.70;99.90;;;;;;4998773;28;20099;-67
2023/05/16 00:08:40;;;;;;;18.08;9.68;;;11.70;99.90;;;;;;5000536;28;20546;-68
2023/05/16 00:11:05;;;;;;;20.25;9.23;;;11.70;99.90;;;;;;5002894;28;20046;-68
2023/05/16 00:13:31;;;;;;;16.73;9.77;;;11.60;99.90;;;;;;5003394;28;20054;-67
2023/05/16 00:15:58;;;;;;;18.55;9.38;;;11.50;99.90;;;;;;5007121;28;20049;-68
2023/05/16 00:18:25;;;;;;;13.60;8.55;;;11.50;99.90;;;;;;5003270;28;20032;-68
2023/05/16 00:20:52;;;;;;;20.20;9.73;;;11.40;99.90;;;;;;4976872;28;20034;-67
2023/05/16 00:23:18;;;;;;;19.27;8.65;;;11.40;99.90;;;;;;4995257;28;20157;-67
2023/05/16 00:25:45;;;;;;;17.60;9.00;;;11.50;99.90;;;;;;5008302;28;20502;-66
2023/05/16 00:28:10;;;;;;;16.25;8.10;;;11.40;99.90;;;;;;5005184;28;20435;-67
2023/05/16 00:30:36;;;;;;;15.05;7.97;;;11.30;99.90;;;;;;5004320;28;20034;-67
2023/05/16 00:33:02;;;;;;;12.40;7.32;;;11.20;99.90;;;;;;5009461;28;20061;-68
2023/05/16 00:35:27;;;;;;;10.38;6.93;;;11.20;99.90;;;;;;4988907;28;20542;-67
2023/05/16 00:37:53;;;;;;;13.63;6.75;;;11.30;99.90;;;;;;5003243;28;20022;-68
2023/05/16 00:40:18;;;;;;;13.32;6.03;;;11.20;99.90;;;;;;5008467;28;20030;-68
2023/05/16 00:42:44;;;;;;;8.23;5.90;;;11.20;99.90;;;;;;5007767;28;20042;-68
2023/05/16 00:45:10;;;;;;;8.52;4.95;;;11.10;99.90;;;;;;5005382;28;20119;-66
2023/05/16 00:47:35;;;;;;;8.30;4.50;;;11.00;99.90;;;;;;4999710;28;20038;-68
2023/05/16 00:50:02;;;;;;;9.32;4.68;;;11.00;99.90;;;;;;5000676;28;20936;-67
2023/05/16 00:52:29;;;;;;;7.03;5.07;;;11.00;99.90;;;;;;5003928;28;20041;-67
2023/05/16 00:54:55;;;;;;;6.40;4.22;;;10.90;99.90;;;;;;5006187;28;20392;-68
2023/05/16 00:57:21;;;;;;;7.43;4.10;;;10.90;99.90;;;;;;4999209;28;20033;-67
2023/05/16 00:59:47;;;;;;;8.25;4.80;;;10.90;99.90;;;;;;5009696;28;20122;-68
2023/05/16 01:02:13;;;;;;;6.63;4.22;;;10.80;99.90;;;;;;5007637;28;20156;-68
2023/05/16 01:04:39;;;;;;;7.10;4.95;;;10.80;99.90;;;;;;5002289;28;20129;-67
2023/05/16 01:07:05;;;;;;;6.47;4.85;;;10.80;99.90;;;;;;5002131;28;20172;-69
2023/05/16 01:09:31;;;;;;;8.52;5.93;;;10.70;99.90;;;;;;5003725;28;20033;-67
2023/05/16 01:12:04;;;;;;;8.90;5.60;;;10.70;99.90;;;;;;5006361;28;20504;-67
2023/05/16 01:14:45;;;;;;;9.95;6.03;;;10.80;99.90;;;;;;5004326;28;20025;-67
2023/05/16 01:17:19;;;;;;;9.25;6.05;;;10.80;99.90;;;;;;4991315;28;20340;-69
2023/05/16 01:20:13;;;;;;;8.50;6.05;;;10.80;99.90;;;;;;5006562;28;20022;-68
2023/05/16 01:22:42;;;;;;;8.45;5.60;;;10.80;99.90;;;;;;4981389;28;20045;-67
2023/05/16 01:25:33;;;;;;;7.18;5.00;;;10.80;99.90;;;;;;5002123;28;20018;-68
2023/05/16 01:28:00;;;;;;;7.22;4.85;;;10.80;99.90;;;;;;5007736;28;20084;-66
2023/05/16 01:30:25;;;;;;;7.95;4.70;;;10.80;99.90;;;;;;5008464;28;20124;-68
2023/05/16 01:32:51;;;;;;;7.15;4.90;;;10.90;99.90;;;;;;4987574;28;20126;-67
2023/05/16 01:35:17;;;;;;;7.32;4.30;;;10.80;99.90;;;;;;5008663;28;20416;-68
2023/05/16 01:38:02;;;;;;;6.03;4.30;;;10.80;99.90;;;;;;5004706;28;20037;-67
2023/05/16 01:41:22;;;;;;;12.43;4.30;;;10.70;99.90;;;;;;5008387;28;20029;-67
2023/05/16 01:43:53;;;;;;;6.47;4.15;;;10.70;99.90;;;;;;4926509;29;20102;-67
2023/05/16 01:46:25;;;;;;;8.27;4.55;;;10.70;99.90;;;;;;4922004;29;20031;-68
2023/05/16 01:49:22;;;;;;;6.60;3.97;;;10.70;99.90;;;;;;4972046;28;20041;-66
2023/05/16 01:51:59;;;;;;;6.50;3.70;;;10.70;99.90;;;;;;5008156;28;20030;-66
2023/05/16 01:54:27;;;;;;;8.48;3.90;;;10.60;99.90;;;;;;5006287;28;20483;-67
2023/05/16 01:56:54;;;;;;;7.93;4.40;;;10.60;99.90;;;;;;5007065;28;20033;-66
2023/05/16 01:59:22;;;;;;;6.82;4.57;;;10.60;99.90;;;;;;4990494;28;20029;-66
2023/05/16 02:01:48;;;;;;;5.82;3.67;;;10.60;99.90;;;;;;5009451;28;20045;-66
2023/05/16 02:04:14;;;;;;;5.68;3.72;;;10.50;99.90;;;;;;4986783;28;20050;-65
2023/05/16 02:06:41;;;;;;;5.97;4.22;;;10.40;99.90;;;;;;5006268;28;20030;-66
2023/05/16 02:09:07;;;;;;;5.75;3.72;;;10.40;99.90;;;;;;5001891;28;20487;-65
2023/05/16 02:11:32;;;;;;;5.00;3.20;;;10.40;99.90;;;;;;4995653;28;20033;-65
2023/05/16 02:13:58;;;;;;;6.88;4.25;;;10.40;99.90;;;;;;5004157;28;20483;-66
2023/05/16 02:16:24;;;;;;;6.32;3.83;;;10.40;99.90;;;;;;5008987;28;20068;-67
2023/05/16 02:18:49;;;;;;;6.75;4.35;;;10.40;99.90;;;;;;5004086;28;20022;-66
2023/05/16 02:21:15;;;;;;;7.28;4.07;;;10.30;99.90;;;;;;5007736;28;20179;-66
2023/05/16 02:23:41;;;;;;;8.52;4.80;;;10.30;99.90;;;;;;4985821;28;20497;-66
2023/05/16 02:26:06;;;;;;;6.88;4.65;;;10.30;99.90;;;;;;5010087;28;20029;-66
2023/05/16 02:28:32;;;;;;;6.57;4.55;;;10.30;99.90;;;;;;4992773;28;20017;-66
2023/05/16 02:31:00;;;;;;;9.15;4.93;;;10.10;99.90;;;;;;5008280;28;20029;-65
2023/05/16 02:33:28;;;;;;;7.40;4.78;;;10.20;99.90;;;;;;5009606;28;20028;-66
2023/05/16 02:35:54;;;;;;;7.47;5.13;;;10.10;99.90;;;;;;5010909;28;20026;-66
2023/05/16 02:38:20;;;;;;;5.72;3.72;;;10.20;99.90;;;;;;5012114;28;20057;-66
2023/05/16 02:40:47;;;;;;;6.35;4.25;;;10.10;99.90;;;;;;5010207;28;20018;-63
2023/05/16 02:43:13;;;;;;;7.22;4.30;;;10.10;99.90;;;;;;5013266;28;20112;-65
2023/05/16 02:45:38;;;;;;;5.55;3.97;;;10.10;99.90;;;;;;5013283;28;20097;-66
2023/05/16 02:48:04;;;;;;;5.90;3.42;;;10.10;99.90;;;;;;5010589;28;20742;-66
2023/05/16 02:50:30;;;;;;;4.85;3.42;;;10.10;99.90;;;;;;5007750;28;20033;-66
2023/05/16 02:52:58;;;;;;;4.47;3.25;;;10.10;99.90;;;;;;5007663;28;20033;-67
2023/05/16 02:55:24;;;;;;;6.28;3.00;;;10.00;99.90;;;;;;5004355;28;20027;-66
2023/05/16 02:57:50;;;;;;;3.97;3.25;;;10.00;99.90;;;;;;5007234;28;20129;-66
2023/05/16 03:00:17;;;;;;;5.15;3.50;;;9.90;99.90;;;;;;5011778;28;20503;-67
2023/05/16 03:02:43;;;;;;;4.57;3.20;;;9.80;99.90;;;;;;4992091;28;20385;-65
2023/05/16 03:05:10;;;;;;;5.68;3.35;;;9.80;99.90;;;;;;5006646;28;20025;-66
2023/05/16 03:07:36;;;;;;;6.10;3.17;;;9.70;99.90;;;;;;5007933;28;20033;-66
2023/05/16 03:10:02;;;;;;;3.53;2.78;;;9.70;99.90;;;;;;5007564;28;20034;-65
2023/05/16 03:12:28;;;;;;;5.68;2.97;;;9.60;99.90;;;;;;5010012;28;20106;-65
2023/05/16 03:14:54;;;;;;;5.15;3.22;;;9.60;99.90;;;;;;5007904;28;20129;-66
2023/05/16 03:17:19;;;;;;;3.72;2.38;;;9.60;99.90;;;;;;5007191;28;20395;-65
2023/05/16 03:19:45;;;;;;;3.90;2.55;;;9.50;99.90;;;;;;5003196;28;20109;-66
2023/05/16 03:22:11;;;;;;;3.67;2.40;;;9.40;99.90;;;;;;5008909;28;20034;-66
2023/05/16 03:24:36;;;;;;;3.88;2.47;;;9.30;99.90;;;;;;4991499;28;20041;-65
2023/05/16 03:27:03;;;;;;;4.57;2.13;;;9.20;99.90;;;;;;5010006;28;20030;-68
2023/05/16 03:29:29;;;;;;;6.78;2.50;;;9.10;99.90;;;;;;5010638;28;20425;-65
2023/05/16 03:31:55;;;;;;;5.60;2.33;;;9.00;99.90;;;;;;5007507;28;20032;-65
2023/05/16 03:34:21;;;;;;;4.10;2.40;;;8.80;99.90;;;;;;5006061;28;20034;-65
2023/05/16 03:36:48;;;;;;;8.20;2.05;;;8.80;99.90;;;;;;5006584;28;20025;-65
2023/05/16 03:39:13;;;;;;;9.00;3.28;;;8.70;99.90;;;;;;5011821;28;20041;-66
2023/05/16 03:41:39;;;;;;;10.88;2.15;;;8.70;99.90;;;;;;5007795;28;20034;-65
2023/05/16 03:44:05;;;;;;;9.15;2.75;;;8.70;99.90;;;;;;5001369;28;20033;-65
2023/05/16 03:46:30;;;;;;;6.03;2.40;;;8.70;99.90;;;;;;4999482;28;20029;-66
2023/05/16 03:48:56;;;;;;;6.63;2.60;;;8.70;99.90;;;;;;4999664;28;20446;-66
2023/05/16 03:51:22;;;;;;;8.63;2.50;;;8.70;99.90;;;;;;5003457;28;20112;-65
2023/05/16 03:53:47;;;;;;;11.02;2.75;;;8.70;99.90;;;;;;5011339;28;20029;-65
2023/05/16 03:56:13;;;;;;;8.55;2.28;;;8.70;99.90;;;;;;5009629;28;20022;-66
2023/05/16 03:58:38;;;;;;;12.45;3.25;;;8.60;99.90;;;;;;5007538;28;20033;-66
2023/05/16 04:01:04;;;;;;;7.95;2.90;;;8.60;99.90;;;;;;5006323;28;20095;-65
2023/05/16 04:03:30;;;;;;;4.45;2.25;;;8.60;99.90;;;;;;4998948;28;20042;-65
2023/05/16 04:05:56;;;;;;;8.38;2.42;;;8.60;99.90;;;;;;5009939;28;20476;-67
2023/05/16 04:08:22;;;;;;;7.50;2.78;;;8.60;99.90;;;;;;5012063;28;20022;-66
2023/05/16 04:10:47;;;;;;;15.35;2.60;;;8.60;99.90;;;;;;5011203;28;20086;-66
2023/05/16 04:13:14;;;;;;;4.75;2.35;;;8.70;99.90;;;;;;5009934;28;20022;-66
2023/05/16 04:15:39;;;;;;;10.48;3.85;;;8.70;99.90;;;;;;5008492;28;20030;-68
2023/05/16 04:18:05;;;;;;;5.53;2.65;;;8.70;99.90;;;;;;5008759;28;20025;-66
2023/05/16 04:20:30;;;;;;;11.93;2.65;;;8.60;99.90;;;;;;5010034;28;20022;-66
2023/05/16 04:22:56;;;;;;;7.88;2.53;;;8.60;99.90;;;;;;4986074;28;20030;-66
2023/05/16 04:25:22;;;;;;;7.43;3.55;;;8.70;99.90;;;;;;5011168;28;20068;-66
2023/05/16 04:27:47;;;;;;;8.88;3.03;;;8.60;99.90;;;;;;5010541;28;20029;-67
2023/05/16 04:30:13;;;;;;;10.93;3.25;;;8.70;99.90;;;;;;5010797;28;20372;-66
2023/05/16 04:32:39;;;;;;;10.23;3.35;;;8.60;99.90;;;;;;5000451;28;20043;-66
2023/05/16 04:35:07;;;;;;;8.50;2.95;;;8.70;99.90;;;;;;5009544;28;20026;-67
2023/05/16 04:37:34;;;;;;;10.38;3.95;;;8.70;99.90;;;;;;4990047;28;20037;-66
2023/05/16 04:40:00;;;;;;;15.68;3.38;;;8.70;99.90;;;;;;5000490;28;20107;-66
2023/05/16 04:42:26;;;;;;;6.85;3.42;;;8.60;99.90;;;;;;5005780;28;20060;-66
2023/05/16 04:44:52;;;;;;;10.60;3.38;;;8.70;99.90;;;;;;4984971;28;20060;-68
2023/05/16 04:47:17;;;;;;;7.18;3.65;;;8.70;99.90;;;;;;5008826;28;20472;-66
2023/05/16 04:49:43;;;;;;;18.33;4.88;;;8.70;99.90;;;;;;5007018;28;20048;-68
2023/05/16 04:52:08;;;;;;;12.27;3.63;;;8.70;99.90;;;;;;5006222;28;20029;-66
2023/05/16 04:54:34;;;;;;;8.07;3.60;;;8.60;99.90;;;;;;5008547;28;20053;-66
2023/05/16 04:57:00;;;;;;;16.20;3.72;;;8.60;99.90;;;;;;5003510;28;20026;-67
2023/05/16 04:59:26;;;;;;;13.63;3.63;;;8.70;99.90;;;;;;5008953;28;20029;-67
2023/05/16 05:01:51;;;;;;;8.60;3.35;;;8.70;99.90;;;;;;5008699;28;20038;-69
2023/05/16 05:04:17;;;;;;;17.35;4.28;;;8.70;99.90;;;;;;5002863;28;20669;-67
2023/05/16 05:06:42;;;;;;;17.63;4.75;;;8.70;99.90;;;;;;5006781;28;20030;-67
2023/05/16 05:09:08;;;;;;;11.20;4.25;;;8.70;99.90;;;;;;4989585;28;20033;-68
2023/05/16 05:11:34;;;;;;;12.35;5.20;;;8.70;99.90;;;;;;5006572;28;20037;-66
2023/05/16 05:14:00;;;;;;;11.90;4.60;;;8.70;99.90;;;;;;5008551;28;20055;-67
2023/05/16 05:16:26;;;;;;;19.70;5.05;;;8.70;99.90;;;;;;5002016;28;20030;-66
2023/05/16 05:18:51;;;;;;;13.77;5.68;;;8.60;99.90;;;;;;5006280;28;20030;-67
2023/05/16 05:21:19;;;;;;;18.20;5.18;;;8.60;99.90;;;;;;5005884;28;20026;-68
2023/05/16 05:23:45;;;;;;;19.58;5.97;;;8.60;99.90;;;;;;4985273;28;20140;-69
2023/05/16 05:26:10;;;;;;;22.23;6.03;;;8.60;99.90;;;;;;4994255;28;20699;-67
2023/05/16 05:28:36;;;;;;;18.95;6.55;;;8.60;99.90;;;;;;5005394;28;20484;-65
2023/05/16 05:31:04;;;;;;;23.10;6.47;;;8.60;99.90;;;;;;4984469;28;20048;-66
2023/05/16 05:33:29;;;;;;;14.13;5.32;;;8.70;99.90;;;;;;5002432;28;20083;-68
2023/05/16 05:35:55;;;;;;;19.88;5.18;;;8.80;99.90;;;;;;4989854;28;20030;-66
2023/05/16 05:38:22;;;;;;;14.70;4.85;;;8.80;99.90;;;;;;5003442;28;20028;-68
2023/05/16 05:40:48;;;;;;;19.02;4.75;;;8.80;99.90;;;;;;4997493;28;20026;-67
2023/05/16 05:43:14;;;;;;;11.73;3.97;;;8.70;99.90;;;;;;4994909;28;20091;-65
2023/05/16 05:45:40;;;;;;;17.40;4.55;;;8.80;99.90;;;;;;4997734;28;20030;-67
2023/05/16 05:48:06;;;;;;;15.13;4.07;;;8.90;99.90;;;;;;4999108;28;20096;-66
2023/05/16 05:50:32;;;;;;;11.75;3.35;;;9.00;99.90;;;;;;4983577;28;20117;-69
2023/05/16 05:52:57;;;;;;;20.25;4.45;;;9.10;99.90;;;;;;4998303;28;20121;-65
2023/05/16 05:55:23;;;;;;;18.75;3.10;;;9.00;99.90;;;;;;4998492;28;20113;-66
2023/05/16 05:57:49;;;;;;;12.88;2.53;;;9.20;99.90;;;;;;5000723;28;20034;-67
2023/05/16 06:00:14;;;;;;;12.35;2.20;;;9.30;99.90;;;;;;4998237;28;20105;-67
2023/05/16 06:02:40;;;;;;;9.05;1.95;;;9.40;99.90;;;;;;4979203;28;20053;-67
2023/05/16 06:05:06;;;;;;;15.57;3.20;;;10.40;99.90;;;;;;4995298;28;20037;-67
2023/05/16 06:07:32;;;;;;;17.40;2.13;;;11.30;99.90;;;;;;5001673;28;20491;-67
2023/05/16 06:09:58;;;;;;;18.17;2.42;;;11.70;99.90;;;;;;4994024;28;20132;-66
2023/05/16 06:12:24;;;;;;;7.18;1.70;;;12.40;99.90;;;;;;5003886;28;20087;-67
2023/05/16 06:14:50;;;;;;;16.52;2.65;;;12.90;99.90;;;;;;4990937;28;20026;-68
2023/05/16 06:17:15;;;;;;;11.75;2.85;;;12.10;99.90;;;;;;5006716;28;20483;-67
2023/05/16 06:19:41;;;;;;;21.77;3.03;;;11.40;99.90;;;;;;5004780;28;20026;-65
2023/05/16 06:22:06;;;;;;;9.85;2.08;;;10.90;99.90;;;;;;5005988;28;20034;-66
2023/05/16 06:24:32;;;;;;;9.32;2.45;;;11.60;99.90;;;;;;4988136;28;20049;-67
2023/05/16 06:26:57;;;;;;;7.30;1.70;;;12.80;99.90;;;;;;5005333;28;20030;-69
2023/05/16 06:29:23;;;;;;;10.93;2.67;;;13.40;99.90;;;;;;5004382;28;20038;-67
2023/05/16 06:31:48;;;;;;;11.13;2.80;;;14.00;99.90;;;;;;5002953;28;20030;-66
2023/05/16 06:34:14;;;;;;;9.38;1.90;;;14.40;99.90;;;;;;5003276;28;20480;-68
2023/05/16 06:36:40;;;;;;;11.30;2.10;;;15.30;99.90;;;;;;5004736;28;20018;-67
2023/05/16 06:39:06;;;;;;;7.88;1.92;;;16.00;98.50;;;;;;5005598;28;20022;-67
2023/05/16 06:41:31;;;;;;;11.32;1.73;;;15.70;97.10;;;;;;4990799;28;20044;-66
2023/05/16 06:43:57;;;;;;;11.20;1.90;;;14.90;98.20;;;;;;5006145;28;20819;-67
2023/05/16 06:46:22;;;;;;;7.80;2.60;;;14.90;99.20;;;;;;5006229;28;20365;-67
2023/05/16 06:48:48;;;;;;;7.35;2.03;;;13.90;99.50;;;;;;5004937;28;20022;-66
2023/05/16 06:51:14;;;;;;;8.52;2.10;;;13.40;99.90;;;;;;5004175;28;20022;-67
2023/05/16 06:53:40;;;;;;;7.97;2.47;;;14.00;99.90;;;;;;4987855;28;20014;-67
2023/05/16 06:56:05;;;;;;;8.32;1.77;;;13.90;99.90;;;;;;5002995;28;20030;-67
2023/05/16 06:58:31;;;;;;;7.43;1.80;;;14.90;99.90;;;;;;5001957;28;20408;-68
2023/05/16 07:00:57;;;;;;;6.60;1.73;;;15.90;98.40;;;;;;4997303;28;20582;-67
2023/05/16 07:03:22;;;;;;;10.02;2.17;;;16.60;94.90;;;;;;4996708;28;20034;-67
2023/05/16 07:05:50;;;;;;;10.10;2.10;;;17.10;95.40;;;;;;4997395;28;20066;-67
2023/05/16 07:08:15;;;;;;;7.43;2.13;;;17.60;93.50;;;;;;5000332;28;20042;-68
2023/05/16 07:10:41;;;;;;;14.65;1.88;;;17.90;93.40;;;;;;4996959;28;20080;-66
2023/05/16 07:13:07;;;;;;;10.27;1.90;;;18.70;90.00;;;;;;5005349;28;20076;-67
2023/05/16 07:15:32;;;;;;;4.35;1.10;;;18.20;90.50;;;;;;5008324;28;20022;-68
2023/05/16 07:17:58;;;;;;;9.85;1.85;;;18.90;90.20;;;;;;4986927;28;20022;-67
2023/05/16 07:20:24;;;;;;;7.00;1.73;;;19.30;86.70;;;;;;5010747;28;20018;-66
2023/05/16 07:22:49;;;;;;;7.70;1.90;;;19.60;87.40;;;;;;4994026;28;20037;-67
2023/05/16 07:25:16;;;;;;;3.97;1.52;;;19.40;86.80;;;;;;4985458;28;20052;-67
2023/05/16 07:27:43;;;;;;;5.15;1.77;;;19.60;90.10;;;;;;5008062;28;20034;-67
2023/05/16 07:30:10;;;;;;;10.65;2.03;;;20.50;83.90;;;;;;5008962;28;20060;-67
2023/05/16 07:32:36;;;;;;;5.63;1.73;;;20.60;81.60;;;;;;5000740;28;20033;-68
2023/05/16 07:35:03;;;;;;;4.30;1.30;;;20.10;82.30;;;;;;4990309;28;20026;-67
2023/05/16 07:37:28;;;;;;;4.85;1.45;;;19.50;80.30;;;;;;5005852;28;20060;-67
2023/05/16 07:39:54;;;;;;;8.48;1.95;;;17.70;86.10;;;;;;5011463;28;20030;-66
2023/05/16 07:42:19;;;;;;;9.20;1.60;;;17.10;87.60;;;;;;5012572;28;20121;-68
2023/05/16 07:44:45;;;;;;;3.13;1.10;;;17.30;87.60;;;;;;5010429;28;20697;-66
2023/05/16 07:47:11;;;;;;;6.10;1.85;;;17.10;87.90;;;;;;5010068;28;20036;-67
2023/05/16 07:49:36;;;;;;;6.63;1.95;;;16.90;88.20;;;;;;5010529;28;20113;-67
2023/05/16 07:52:02;;;;;;;14.45;2.38;;;16.20;88.60;;;;;;5012929;28;20529;-68
2023/05/16 07:54:28;;;;;;;11.50;2.20;;;15.20;90.10;;;;;;5006399;28;20030;-67
2023/05/16 07:56:53;;;;;;;4.05;1.52;;;14.70;91.90;;;;;;5012313;28;20395;-67
2023/05/16 07:59:19;;;;;;;9.55;1.67;;;15.10;90.20;;;;;;5011375;28;20053;-67
2023/05/16 08:01:45;;;;;;;11.20;1.63;;;14.90;91.50;;;;;;5007929;28;20179;-67
2023/05/16 08:04:10;;;;;;;5.18;1.67;;;15.20;90.30;;;;;;4991771;28;20474;-67
2023/05/16 08:06:36;;;;;;;5.45;1.70;;;16.30;90.00;;;;;;5010626;28;20479;-67
2023/05/16 08:09:02;;;;;;;4.35;1.30;;;17.70;83.00;;;;;;5009215;28;20049;-66
2023/05/16 08:11:27;;;;;;;5.55;1.60;;;18.60;82.30;;;;;;5011514;28;20065;-66
2023/05/16 08:13:53;;;;;;;8.45;2.80;;;19.20;78.30;;;;;;5011126;28;20397;-66
2023/05/16 08:16:18;;;;;;;7.63;1.58;;;19.20;78.00;;;;;;5010374;28;20152;-66
2023/05/16 08:18:44;;;;;;;8.63;1.40;;;18.80;80.30;;;;;;4985395;28;20392;-67
2023/05/16 08:21:10;;;;;;;5.13;1.42;;;19.70;80.60;;;;;;5003492;28;20042;-68
2023/05/16 08:23:35;;;;;;;3.28;1.00;;;20.20;75.70;;;;;;4981966;28;20441;-67
2023/05/16 08:26:01;;;;;;;4.82;1.55;;;20.50;73.00;;;;;;4989922;28;20050;-66
2023/05/16 08:28:28;;;;;;;5.25;1.42;;;21.00;71.70;;;;;;5007018;28;20026;-67
2023/05/16 08:30:53;;;;;;;6.90;1.73;;;21.20;71.00;;;;;;5036493;23;20026;-65
2023/05/16 08:33:19;;;;;;;4.28;1.25;;;20.60;73.60;;;;;;4977481;28;20525;-65
2023/05/16 08:35:45;;;;;;;5.45;0.90;;;19.80;72.50;;;;;;4983458;28;20030;-66
2023/05/16 08:38:11;;;;;;;6.50;1.98;;;19.20;73.40;;;;;;4985089;28;20022;-66
2023/05/16 08:40:36;;;;;;;5.25;1.70;;;17.50;76.90;;;;;;4990823;28;20033;-66
2023/05/16 08:43:03;;;;;;;8.75;2.00;;;16.20;80.70;;;;;;4991219;28;20118;-65
2023/05/16 08:45:30;;;;;;;3.33;1.17;;;15.80;79.80;;;;;;4988831;28;20493;-65
2023/05/16 08:47:56;;;;;;;7.32;1.38;;;15.90;80.30;;;;;;4975610;28;20133;-66
2023/05/16 08:50:23;;;;;;;5.82;1.20;;;17.00;79.50;;;;;;4989257;28;20081;-66
2023/05/16 08:52:51;;;;;;;6.25;2.22;;;18.20;75.20;;;;;;4986999;28;20022;-66
2023/05/16 08:55:19;;;;;;;5.65;1.05;;;19.00;72.60;;;;;;4984997;28;20097;-66
2023/05/16 08:57:48;;;;;;;6.60;1.08;;;19.50;71.50;;;;;;4987212;28;20026;-66
2023/05/16 09:00:14;;;;;;;5.32;1.63;;;19.10;74.10;;;;;;4988790;28;20030;-66
2023/05/16 09:02:41;;;;;;;12.23;1.73;;;19.40;74.90;;;;;;4987757;28;20042;-66
2023/05/16 09:05:14;;;;;;;9.40;1.80;;;19.30;75.40;;;;;;4988750;28;20033;-67
2023/05/16 09:07:41;;;;;;;3.72;0.90;;;19.20;73.60;;;;;;4986271;28;20526;-65
2023/05/16 09:10:08;;;;;;;8.43;1.48;;;18.10;75.50;;;;;;4990257;28;20035;-66
2023/05/16 09:12:34;;;;;;;12.18;1.40;;;16.90;78.40;;;;;;4984768;28;20033;-65
2023/05/16 09:15:04;;;;;;;5.90;1.42;;;16.50;79.50;;;;;;4989216;28;20089;-66
2023/05/16 09:17:38;;;;;;;4.70;1.42;;;16.30;80.00;;;;;;4985614;28;20244;-67
2023/05/16 09:20:15;;;;;;;6.10;1.02;;;17.20;76.40;;;;;;4985002;28;20435;-66
2023/05/16 09:22:56;;;;;;;5.95;2.10;;;17.80;76.90;;;;;;4987618;28;20030;-65
2023/05/16 09:25:23;;;;;;;4.95;1.30;;;18.60;72.90;;;;;;4969414;28;20046;-66
2023/05/16 09:27:53;;;;;;;4.90;0.80;;;20.50;70.30;;;;;;4989859;28;20030;-66
2023/05/16 09:30:24;;;;;;;2.78;0.90;;;20.50;71.80;;;;;;4990317;28;20105;-67
2023/05/16 09:32:51;;;;;;;4.05;1.15;;;20.10;70.80;;;;;;4983192;28;20053;-66
2023/05/16 09:35:18;;;;;;;6.55;1.20;;;19.60;67.40;;;;;;4987084;28;20440;-66
2023/05/16 09:37:45;;;;;;;5.63;1.90;;;19.00;69.70;;;;;;4986857;28;20038;-66
2023/05/16 09:40:11;;;;;;;2.42;0.88;;;19.60;73.00;;;;;;4988158;28;20106;-66
2023/05/16 09:42:37;;;;;;;5.38;1.40;;;19.50;69.60;;;;;;4991416;28;20123;-66
2023/05/16 09:45:03;;;;;;;4.40;1.00;;;19.50;70.90;;;;;;4984764;28;20475;-66
2023/05/16 09:47:29;;;;;;;5.70;0.98;;;19.70;68.20;;;;;;4986619;28;20113;-66
2023/05/16 09:49:55;;;;;;;3.65;0.77;;;19.90;68.20;;;;;;4986889;28;20114;-65
2023/05/16 09:52:21;;;;;;;5.50;1.08;;;19.50;68.50;;;;;;4989834;28;20100;-65
2023/05/16 09:54:50;;;;;;;3.75;0.77;;;18.70;70.20;;;;;;4985911;28;20027;-66
2023/05/16 09:57:19;;;;;;;6.43;2.45;;;19.90;66.80;;;;;;4990181;28;20030;-66
2023/05/16 09:59:44;;;;;;;5.63;1.15;;;20.30;68.50;;;;;;4983446;28;20096;-67
2023/05/16 10:02:11;;;;;;;7.13;1.25;;;20.20;67.60;;;;;;4984927;28;20496;-65
2023/05/16 10:04:37;;;;;;;5.97;1.15;;;20.20;67.30;;;;;;4984773;28;20045;-66
2023/05/16 10:07:04;;;;;;;4.68;1.08;;;19.50;68.80;;;;;;4968273;28;20487;-66
2023/05/16 10:09:33;;;;;;;8.50;1.73;;;18.00;71.70;;;;;;4978647;28;20023;-66
2023/05/16 10:12:05;;;;;;;4.95;1.27;;;17.70;72.50;;;;;;4985052;28;20031;-66
2023/05/16 10:14:36;;;;;;;5.05;1.20;;;17.70;71.70;;;;;;4980365;28;20049;-66
2023/05/16 10:17:05;;;;;;;6.95;1.30;;;17.30;72.50;;;;;;4986252;28;20092;-66
2023/05/16 10:19:38;;;;;;;5.38;1.70;;;16.80;71.80;;;;;;4980893;28;20063;-65
2023/05/16 10:22:05;;;;;;;8.90;2.45;;;17.20;73.70;;;;;;4980972;28;20424;-65
2023/05/16 10:24:49;;;;;;;7.13;1.27;;;16.90;74.40;;;;;;4983316;28;20465;-66
2023/05/16 10:27:16;;;;;;;5.00;1.13;;;17.10;72.70;;;;;;4984141;28;20511;-65
2023/05/16 10:29:43;;;;;;;2.30;1.10;;;17.00;72.00;;;;;;4989978;28;20042;-65
2023/05/16 10:32:09;;;;;;;5.63;1.10;;;16.30;72.80;;;;;;4981978;28;20027;-65
2023/05/16 10:34:35;;;;;;;5.40;1.52;;;16.30;74.90;;;;;;4981535;28;20089;-66
2023/05/16 10:37:02;;;;;;;3.42;1.23;;;16.20;73.10;;;;;;4985401;28;20014;-65
2023/05/16 10:39:28;;;;;;;5.57;1.20;;;16.00;75.30;;;;;;4979801;28;20488;-65
2023/05/16 10:41:55;;;;;;;2.42;0.98;;;16.00;74.40;;;;;;4981288;28;20034;-66
2023/05/16 10:44:20;;;;;;;5.97;1.40;;;16.30;74.90;;;;;;4991370;28;20026;-65
2023/05/16 10:46:47;;;;;;;4.00;1.13;;;16.40;75.20;;;;;;4985198;28;20026;-66
2023/05/16 10:49:20;;;;;;;5.13;1.27;;;16.20;73.60;;;;;;4985391;28;20046;-65
2023/05/16 10:52:06;;;;;;;5.35;1.98;;;16.40;75.40;;;;;;4981094;28;20038;-65
2023/05/16 10:54:36;;;;;;;5.50;1.10;;;16.60;72.80;;;;;;4988448;28;20053;-65
2023/05/16 10:57:07;;;;;;;2.92;1.08;;;16.30;74.30;;;;;;4996646;28;20096;-65
2023/05/16 10:59:42;;;;;;;5.15;1.10;;;15.90;75.30;;;;;;4985895;28;20026;-65
2023/05/16 11:02:28;;;;;;;5.00;1.23;;;15.70;76.40;;;;;;4986375;28;20030;-65
2023/05/16 11:04:58;;;;;;;3.72;1.20;;;15.60;74.30;;;;;;4989952;28;20130;-65
2023/05/16 11:07:25;;;;;;;4.05;1.02;;;15.90;71.90;;;;;;4985399;28;20030;-66
2023/05/16 11:10:05;;;;;;;1.58;0.82;;;16.20;71.70;;;;;;4987315;28;20091;-65
2023/05/16 11:12:43;;;;;;;5.15;1.23;;;16.50;71.50;;;;;;4988804;28;20625;-66
2023/05/16 11:15:24;;;;;;;2.60;0.95;;;16.20;71.30;;;;;;4984702;28;20029;-65
2023/05/16 11:18:02;;;;;;;6.30;1.40;;;16.30;72.80;;;;;;4985787;28;20030;-66
2023/05/16 11:20:33;;;;;;;3.58;0.98;;;16.10;74.80;;;;;;4985194;28;20368;-65
2023/05/16 11:23:20;;;;;;;4.22;0.85;;;16.20;70.50;;;;;;4990420;28;20026;-65
2023/05/16 11:25:48;;;;;;;1.88;0.77;;;16.40;71.30;;;;;;4962580;28;20054;-65
2023/05/16 11:28:13;;;;;;;4.38;1.63;;;16.00;71.50;;;;;;4992688;28;20040;-65
2023/05/16 11:30:51;;;;;;;5.85;1.15;;;15.70;72.80;;;;;;4983355;28;20110;-65
2023/05/16 11:33:17;;;;;;;5.07;1.00;;;15.60;73.80;;;;;;4993440;28;20045;-65
2023/05/16 11:35:58;;;;;;;7.88;1.05;;;15.70;75.90;;;;;;4984396;28;20026;-66
2023/05/16 11:38:24;;;;;;;4.00;1.20;;;15.70;76.60;;;;;;4987391;28;20026;-65
2023/05/16 11:40:49;;;;;;;1.85;0.52;;;15.70;75.90;;;;;;4983244;28;20045;-65
2023/05/16 11:43:18;;;;;;;4.45;1.13;;;16.20;75.00;;;;;;4983497;28;20110;-66
2023/05/16 11:45:44;;;;;;;4.05;0.98;;;16.60;74.50;;;;;;4981627;28;20035;-66
2023/05/16 11:48:10;;;;;;;2.88;1.00;;;17.00;70.80;;;;;;4993230;28;20023;-65
2023/05/16 11:50:35;;;;;;;3.67;1.20;;;16.70;68.80;;;;;;4985340;28;20042;-66
2023/05/16 11:53:01;;;;;;;2.65;1.02;;;16.30;72.00;;;;;;4992943;28;20030;-65
2023/05/16 11:55:31;;;;;;;3.08;1.58;;;16.40;72.70;;;;;;4987258;28;20077;-65
2023/05/16 11:57:58;;;;;;;6.38;0.82;;;16.60;72.90;;;;;;4991011;28;20022;-65
2023/05/16 12:00:25;;;;;;;3.13;1.02;;;16.80;71.40;;;;;;4987703;28;20049;-66
2023/05/16 12:03:00;;;;;;;5.35;1.58;;;16.50;70.60;;;;;;4983959;28;20053;-66
2023/05/16 12:05:27;;;;;;;1.67;1.00;;;16.30;73.30;;;;;;4982226;28;20104;-66
2023/05/16 12:07:55;;;;;;;3.25;1.52;;;16.50;74.70;;;;;;4983548;28;20254;-66
2023/05/16 12:10:21;;;;;;;2.83;1.17;;;16.60;72.40;;;;;;4984213;28;20065;-66
2023/05/16 12:12:51;;;;;;;4.45;1.38;;;16.60;71.70;;;;;;4989611;28;20049;-65
2023/05/16 12:15:17;;;;;;;2.10;1.05;;;16.50;72.80;;;;;;4983631;28;20046;-66
2023/05/16 12:17:43;;;;;;;3.60;1.85;;;16.30;73.90;;;;;;4986767;28;20058;-66
2023/05/16 12:20:12;;;;;;;3.95;1.30;;;16.40;74.00;;;;;;4995737;28;20030;-66
2023/05/16 12:22:45;;;;;;;2.97;1.00;;;16.20;74.50;;;;;;4993812;28;20030;-66
2023/05/16 12:25:42;;;;;;;3.42;1.13;;;16.10;74.40;;;;;;4995901;28;20693;-65
2023/05/16 12:28:08;;;;;;;5.18;0.98;;;15.90;74.80;;;;;;4959834;28;20061;-65
2023/05/16 12:30:34;;;;;;;2.28;1.10;;;15.60;80.60;;;;;;4989592;28;20076;-65
2023/05/16 12:33:08;;;;;;;3.17;1.30;;;15.60;78.50;;;;;;4983946;28;20038;-66
2023/05/16 12:35:36;;;;;;;7.15;2.58;;;15.70;77.70;;;;;;4991422;28;20038;-65
2023/05/16 12:38:09;;;;;;;2.50;1.35;;;15.80;77.10;;;;;;4992875;28;20062;-65
2023/05/16 12:40:40;;;;;;;4.25;1.40;;;15.90;76.00;;;;;;5000947;28;20081;-65
2023/05/16 12:43:15;;;;;;;6.53;1.38;;;16.10;75.30;;;;;;4984407;28;20039;-66
2023/05/16 12:45:42;;;;;;;6.38;1.42;;;16.00;76.60;;;;;;4984028;28;20022;-65
2023/05/16 12:48:12;;;;;;;6.50;1.42;;;15.90;76.50;;;;;;4988493;28;20034;-65